VLG2DV LJLJ-LEBL
Flight info
| Callsign | VLG2DV |
|---|---|
| Flight time | 1h 40m |
| Altitude | 32000 |
| Route | MODRO DCT RIFEN DCT AKADO/N0453F350 DCT GEKBA DCT VAMTU DCT KOLON DCT GANGU DCT PADKO DCT DIVKO DCT NILDU DCT BISBA |
| Aircraft | A320/M-SDE3FGHIRWY/LB1 |
Departure
| Time | 2026-05-08 15:22 |
|---|---|
| Airport | Ljubljana Jože Pučnik Airport (LJLJ) |
Arrival
| Time | 2026-05-08 17:02 |
|---|---|
| Airport | Josep Tarradellas Barcelona-El Prat Airport (LEBL) |
| Time | Latitude | Longitude | Altitude | Speed | Heading |
|---|---|---|---|---|---|
| 2026-05-08 14:58 | 46.22956 | 14.45560 | 1258 ft | 0 kts | 36° |
| 2026-05-08 15:13 | 46.22955 | 14.45560 | 1258 ft | 2 kts | 36° |
| 2026-05-08 15:13 | 46.22939 | 14.45543 | 1267 ft | 3 kts | 34° |
| 2026-05-08 15:13 | 46.22922 | 14.45528 | 1266 ft | 3 kts | 23° |
| 2026-05-08 15:13 | 46.22904 | 14.45520 | 1265 ft | 3 kts | 349° |
| 2026-05-08 15:14 | 46.22893 | 14.45527 | 1264 ft | 0 kts | 306° |
| 2026-05-08 15:17 | 46.22896 | 14.45521 | 1265 ft | 5 kts | 306° |
| 2026-05-08 15:17 | 46.22927 | 14.45422 | 1258 ft | 15 kts | 256° |
| 2026-05-08 15:17 | 46.22832 | 14.45335 | 1258 ft | 17 kts | 165° |
| 2026-05-08 15:17 | 46.22738 | 14.45502 | 1259 ft | 26 kts | 127° |
| 2026-05-08 15:18 | 46.22614 | 14.45742 | 1248 ft | 25 kts | 127° |
| 2026-05-08 15:18 | 46.22503 | 14.45963 | 1249 ft | 25 kts | 126° |
| 2026-05-08 15:18 | 46.22388 | 14.46188 | 1237 ft | 27 kts | 127° |
| 2026-05-08 15:18 | 46.22270 | 14.46417 | 1229 ft | 32 kts | 127° |
| 2026-05-08 15:19 | 46.22125 | 14.46697 | 1219 ft | 32 kts | 125° |
| 2026-05-08 15:19 | 46.22006 | 14.46934 | 1216 ft | 28 kts | 126° |
| 2026-05-08 15:19 | 46.21890 | 14.47162 | 1212 ft | 31 kts | 126° |
| 2026-05-08 15:19 | 46.21768 | 14.47401 | 1209 ft | 30 kts | 127° |
| 2026-05-08 15:20 | 46.21651 | 14.47604 | 1196 ft | 18 kts | 156° |
| 2026-05-08 15:20 | 46.21587 | 14.47565 | 1197 ft | 13 kts | 214° |
| 2026-05-08 15:20 | 46.21518 | 14.47455 | 1198 ft | 15 kts | 272° |
| 2026-05-08 15:20 | 46.21539 | 14.47379 | 1200 ft | 0 kts | 306° |
| 2026-05-08 15:21 | 46.21546 | 14.47366 | 1201 ft | 7 kts | 306° |
| 2026-05-08 15:21 | 46.21695 | 14.47076 | 1213 ft | 69 kts | 307° |
| 2026-05-08 15:21 | 46.22104 | 14.46279 | 1241 ft | 126 kts | 306° |
| 2026-05-08 15:21 | 46.22715 | 14.45077 | 1266 ft | 169 kts | 306° |
| 2026-05-08 15:22 | 46.23375 | 14.43767 | 1894 ft | 153 kts | 306° |
| 2026-05-08 15:22 | 46.23761 | 14.42330 | 2418 ft | 157 kts | 264° |
| 2026-05-08 15:22 | 46.23298 | 14.40817 | 2681 ft | 182 kts | 227° |
| 2026-05-08 15:22 | 46.22212 | 14.39756 | 2942 ft | 201 kts | 193° |
| 2026-05-08 15:23 | 46.20788 | 14.39396 | 3297 ft | 218 kts | 187° |
| 2026-05-08 15:23 | 46.19262 | 14.39112 | 3922 ft | 224 kts | 186° |
| 2026-05-08 15:23 | 46.17718 | 14.38838 | 4747 ft | 224 kts | 186° |
| 2026-05-08 15:23 | 46.16165 | 14.38565 | 5520 ft | 226 kts | 187° |
| 2026-05-08 15:24 | 46.14593 | 14.38288 | 6322 ft | 228 kts | 187° |
| 2026-05-08 15:24 | 46.13008 | 14.38009 | 7064 ft | 231 kts | 188° |
| 2026-05-08 15:24 | 46.11402 | 14.37724 | 7760 ft | 234 kts | 188° |
| 2026-05-08 15:24 | 46.09768 | 14.37431 | 8479 ft | 239 kts | 188° |
| 2026-05-08 15:25 | 46.08108 | 14.37082 | 9190 ft | 243 kts | 196° |
| 2026-05-08 15:25 | 46.06569 | 14.36059 | 9811 ft | 251 kts | 218° |
| 2026-05-08 15:25 | 46.05413 | 14.34075 | 10085 ft | 272 kts | 245° |
| 2026-05-08 15:25 | 46.04671 | 14.31445 | 10320 ft | 295 kts | 249° |
| 2026-05-08 15:26 | 46.03910 | 14.28573 | 10518 ft | 319 kts | 250° |
| 2026-05-08 15:26 | 46.03104 | 14.25496 | 10810 ft | 336 kts | 250° |
| 2026-05-08 15:26 | 46.02272 | 14.22324 | 11445 ft | 341 kts | 250° |
| 2026-05-08 15:26 | 46.01423 | 14.19109 | 12104 ft | 345 kts | 249° |
| 2026-05-08 15:27 | 46.00559 | 14.15867 | 12776 ft | 349 kts | 249° |
| 2026-05-08 15:27 | 45.99680 | 14.12588 | 13489 ft | 352 kts | 249° |
| 2026-05-08 15:27 | 45.98793 | 14.09289 | 14135 ft | 355 kts | 249° |
| 2026-05-08 15:27 | 45.97896 | 14.05954 | 14748 ft | 358 kts | 249° |
| 2026-05-08 15:28 | 45.97002 | 14.02642 | 15346 ft | 361 kts | 249° |
| 2026-05-08 15:28 | 45.96088 | 13.99258 | 15917 ft | 365 kts | 249° |
| 2026-05-08 15:28 | 45.95162 | 13.95837 | 16510 ft | 368 kts | 248° |
| 2026-05-08 15:28 | 45.94233 | 13.92404 | 17166 ft | 369 kts | 249° |
| 2026-05-08 15:29 | 45.93297 | 13.88955 | 17777 ft | 372 kts | 248° |
| 2026-05-08 15:29 | 45.92350 | 13.85473 | 18366 ft | 376 kts | 248° |
| 2026-05-08 15:29 | 45.91393 | 13.81958 | 18919 ft | 379 kts | 248° |
| 2026-05-08 15:29 | 45.90430 | 13.78421 | 19479 ft | 382 kts | 248° |
| 2026-05-08 15:30 | 45.89458 | 13.74861 | 20035 ft | 385 kts | 248° |
| 2026-05-08 15:30 | 45.88477 | 13.71267 | 20603 ft | 388 kts | 248° |
| 2026-05-08 15:30 | 45.87488 | 13.67641 | 21127 ft | 391 kts | 248° |
| 2026-05-08 15:30 | 45.86492 | 13.63994 | 21635 ft | 394 kts | 248° |
| 2026-05-08 15:31 | 45.85473 | 13.60334 | 22148 ft | 396 kts | 245° |
| 2026-05-08 15:31 | 45.84144 | 13.56875 | 22625 ft | 398 kts | 235° |
| 2026-05-08 15:31 | 45.82592 | 13.53573 | 23124 ft | 401 kts | 235° |
| 2026-05-08 15:31 | 45.81050 | 13.50283 | 23609 ft | 403 kts | 235° |
| 2026-05-08 15:32 | 45.79461 | 13.46880 | 23915 ft | 405 kts | 235° |
| 2026-05-08 15:32 | 45.77920 | 13.43583 | 23986 ft | 404 kts | 235° |
| 2026-05-08 15:32 | 45.76355 | 13.40244 | 24001 ft | 402 kts | 235° |
| 2026-05-08 15:32 | 45.74797 | 13.36930 | 24004 ft | 400 kts | 235° |
| 2026-05-08 15:33 | 45.73242 | 13.33623 | 24007 ft | 400 kts | 235° |
| 2026-05-08 15:33 | 45.71674 | 13.30295 | 24346 ft | 403 kts | 235° |
| 2026-05-08 15:33 | 45.70108 | 13.26970 | 24808 ft | 404 kts | 235° |
| 2026-05-08 15:33 | 45.68533 | 13.23631 | 25225 ft | 406 kts | 235° |
| 2026-05-08 15:34 | 45.67487 | 13.21416 | 25489 ft | 406 kts | 235° |
| 2026-05-08 15:34 | 45.65366 | 13.16922 | 26016 ft | 408 kts | 235° |
| 2026-05-08 15:34 | 45.63771 | 13.13545 | 26404 ft | 410 kts | 235° |
| 2026-05-08 15:34 | 45.62167 | 13.10165 | 26787 ft | 411 kts | 235° |
| 2026-05-08 15:35 | 45.60553 | 13.06774 | 27171 ft | 412 kts | 235° |
| 2026-05-08 15:35 | 45.58937 | 13.03381 | 27579 ft | 413 kts | 235° |
| 2026-05-08 15:35 | 45.57322 | 12.99981 | 27952 ft | 415 kts | 235° |
| 2026-05-08 15:35 | 45.55700 | 12.96567 | 28312 ft | 417 kts | 235° |
| 2026-05-08 15:36 | 45.54618 | 12.94296 | 28571 ft | 418 kts | 235° |
| 2026-05-08 15:36 | 45.52982 | 12.90871 | 28941 ft | 419 kts | 235° |
| 2026-05-08 15:36 | 45.51335 | 12.87429 | 29294 ft | 421 kts | 235° |
| 2026-05-08 15:36 | 45.49684 | 12.83981 | 29675 ft | 421 kts | 235° |
| 2026-05-08 15:37 | 45.48016 | 12.80500 | 30177 ft | 419 kts | 234° |
| 2026-05-08 15:37 | 45.46375 | 12.77073 | 30630 ft | 417 kts | 234° |
| 2026-05-08 15:37 | 45.44747 | 12.73673 | 31071 ft | 415 kts | 234° |
| 2026-05-08 15:37 | 45.43147 | 12.70336 | 31486 ft | 413 kts | 234° |
| 2026-05-08 15:38 | 45.41525 | 12.66957 | 31944 ft | 411 kts | 234° |
| 2026-05-08 15:38 | 45.39916 | 12.63606 | 32435 ft | 408 kts | 234° |
| 2026-05-08 15:38 | 45.38320 | 12.60291 | 32915 ft | 406 kts | 234° |
| 2026-05-08 15:38 | 45.36725 | 12.56992 | 33409 ft | 403 kts | 234° |
| 2026-05-08 15:39 | 45.35143 | 12.53726 | 33913 ft | 400 kts | 234° |
| 2026-05-08 15:39 | 45.33696 | 12.50362 | 34329 ft | 399 kts | 242° |
| 2026-05-08 15:39 | 45.32663 | 12.46705 | 34648 ft | 401 kts | 251° |
| 2026-05-08 15:39 | 45.31900 | 12.42887 | 34933 ft | 402 kts | 252° |
| 2026-05-08 15:40 | 45.30353 | 12.35182 | 35036 ft | 409 kts | 252° |
| 2026-05-08 15:40 | 45.28769 | 12.27382 | 35041 ft | 412 kts | 252° |
| 2026-05-08 15:41 | 45.27175 | 12.19556 | 35046 ft | 413 kts | 252° |
| 2026-05-08 15:41 | 45.25576 | 12.11714 | 35044 ft | 413 kts | 252° |
| 2026-05-08 15:42 | 45.23969 | 12.03901 | 35043 ft | 413 kts | 252° |
| 2026-05-08 15:42 | 45.22356 | 11.96057 | 35051 ft | 414 kts | 252° |
| 2026-05-08 15:43 | 45.20741 | 11.88213 | 35049 ft | 415 kts | 252° |
| 2026-05-08 15:43 | 45.19111 | 11.80368 | 35052 ft | 415 kts | 252° |
| 2026-05-08 15:44 | 45.17472 | 11.72497 | 35062 ft | 415 kts | 252° |
| 2026-05-08 15:44 | 45.15844 | 11.64693 | 35065 ft | 416 kts | 252° |
| 2026-05-08 15:45 | 45.14203 | 11.56842 | 35091 ft | 416 kts | 253° |
| 2026-05-08 15:45 | 45.12551 | 11.48984 | 35096 ft | 417 kts | 253° |
| 2026-05-08 15:46 | 45.10883 | 11.41117 | 35103 ft | 417 kts | 253° |
| 2026-05-08 15:46 | 45.09211 | 11.33240 | 35101 ft | 417 kts | 253° |
| 2026-05-08 15:47 | 45.07537 | 11.25374 | 35094 ft | 417 kts | 253° |
| 2026-05-08 15:47 | 45.05850 | 11.17515 | 35071 ft | 417 kts | 252° |
| 2026-05-08 15:48 | 45.03321 | 11.05736 | 35061 ft | 417 kts | 253° |
| 2026-05-08 15:49 | 45.01632 | 10.97902 | 35083 ft | 416 kts | 253° |
| 2026-05-08 15:49 | 44.99931 | 10.90078 | 35119 ft | 416 kts | 253° |
| 2026-05-08 15:50 | 44.98240 | 10.82320 | 35118 ft | 416 kts | 253° |
| 2026-05-08 15:50 | 44.96541 | 10.74507 | 35114 ft | 415 kts | 253° |
| 2026-05-08 15:51 | 44.94839 | 10.66715 | 35124 ft | 415 kts | 253° |
| 2026-05-08 15:51 | 44.93128 | 10.58934 | 35121 ft | 414 kts | 253° |
| 2026-05-08 15:52 | 44.91406 | 10.51179 | 35116 ft | 413 kts | 253° |
| 2026-05-08 15:52 | 44.89689 | 10.43438 | 35112 ft | 412 kts | 254° |
| 2026-05-08 15:53 | 44.87981 | 10.35744 | 35115 ft | 410 kts | 254° |
| 2026-05-08 15:53 | 44.86289 | 10.28142 | 35061 ft | 408 kts | 254° |
| 2026-05-08 15:54 | 44.84581 | 10.20524 | 35055 ft | 407 kts | 254° |
| 2026-05-08 15:54 | 44.82872 | 10.12934 | 35058 ft | 406 kts | 254° |
| 2026-05-08 15:55 | 44.81165 | 10.05340 | 35062 ft | 406 kts | 254° |
| 2026-05-08 15:55 | 44.78584 | 9.93966 | 35067 ft | 406 kts | 254° |
| 2026-05-08 15:56 | 44.76875 | 9.86445 | 35055 ft | 406 kts | 255° |
| 2026-05-08 15:56 | 44.75155 | 9.78904 | 35056 ft | 404 kts | 255° |
| 2026-05-08 15:57 | 44.73436 | 9.71406 | 35058 ft | 402 kts | 255° |
| 2026-05-08 15:57 | 44.71715 | 9.63935 | 35061 ft | 401 kts | 255° |
| 2026-05-08 15:58 | 44.69996 | 9.56493 | 35062 ft | 400 kts | 255° |
| 2026-05-08 15:58 | 44.68279 | 9.49069 | 35060 ft | 399 kts | 255° |
| 2026-05-08 15:59 | 44.66557 | 9.41654 | 35058 ft | 399 kts | 255° |
| 2026-05-08 15:59 | 44.64831 | 9.34246 | 35059 ft | 398 kts | 255° |
| 2026-05-08 16:00 | 44.63108 | 9.26848 | 35055 ft | 398 kts | 255° |
| 2026-05-08 16:00 | 44.61383 | 9.19514 | 35031 ft | 398 kts | 255° |
| 2026-05-08 16:01 | 44.59637 | 9.12147 | 35041 ft | 397 kts | 255° |
| 2026-05-08 16:01 | 44.57906 | 9.04803 | 35034 ft | 396 kts | 255° |
| 2026-05-08 16:02 | 44.56178 | 8.97450 | 35027 ft | 396 kts | 255° |
| 2026-05-08 16:02 | 44.54441 | 8.90122 | 35023 ft | 396 kts | 255° |
| 2026-05-08 16:03 | 44.52690 | 8.82809 | 35017 ft | 396 kts | 255° |
| 2026-05-08 16:03 | 44.50936 | 8.75489 | 35020 ft | 396 kts | 255° |
| 2026-05-08 16:04 | 44.49195 | 8.68222 | 35026 ft | 396 kts | 254° |
| 2026-05-08 16:04 | 44.47438 | 8.60920 | 35034 ft | 396 kts | 254° |
| 2026-05-08 16:05 | 44.45671 | 8.53623 | 35038 ft | 395 kts | 254° |
| 2026-05-08 16:05 | 44.43895 | 8.46341 | 35050 ft | 395 kts | 254° |
| 2026-05-08 16:06 | 44.42121 | 8.39049 | 35069 ft | 396 kts | 254° |
| 2026-05-08 16:06 | 44.40347 | 8.31760 | 35059 ft | 396 kts | 253° |
| 2026-05-08 16:07 | 44.38568 | 8.24473 | 35054 ft | 397 kts | 253° |
| 2026-05-08 16:07 | 44.36776 | 8.17177 | 35065 ft | 397 kts | 253° |
| 2026-05-08 16:08 | 44.34976 | 8.09875 | 35068 ft | 397 kts | 253° |
| 2026-05-08 16:08 | 44.33170 | 8.02574 | 35051 ft | 397 kts | 253° |
| 2026-05-08 16:09 | 44.31669 | 7.96511 | 35068 ft | 397 kts | 253° |
| 2026-05-08 16:09 | 44.29554 | 7.87990 | 35065 ft | 397 kts | 253° |
| 2026-05-08 16:10 | 44.27632 | 7.80751 | 35070 ft | 399 kts | 246° |
| 2026-05-08 16:10 | 44.24286 | 7.74502 | 35070 ft | 409 kts | 227° |
| 2026-05-08 16:11 | 44.20011 | 7.69236 | 35067 ft | 410 kts | 226° |
| 2026-05-08 16:11 | 44.15743 | 7.63995 | 35063 ft | 411 kts | 226° |
| 2026-05-08 16:12 | 44.11886 | 7.58245 | 35077 ft | 405 kts | 233° |
| 2026-05-08 16:12 | 44.08188 | 7.52310 | 35076 ft | 406 kts | 233° |
| 2026-05-08 16:13 | 44.04474 | 7.46393 | 35072 ft | 406 kts | 233° |
| 2026-05-08 16:13 | 44.00760 | 7.40484 | 35077 ft | 406 kts | 233° |
| 2026-05-08 16:14 | 43.97042 | 7.34568 | 35049 ft | 406 kts | 232° |
| 2026-05-08 16:14 | 43.93322 | 7.28655 | 35051 ft | 406 kts | 232° |
| 2026-05-08 16:15 | 43.89605 | 7.22753 | 35047 ft | 406 kts | 232° |
| 2026-05-08 16:15 | 43.85906 | 7.16907 | 35050 ft | 406 kts | 232° |
| 2026-05-08 16:16 | 43.82176 | 7.11028 | 35050 ft | 406 kts | 232° |
| 2026-05-08 16:16 | 43.78453 | 7.05163 | 35038 ft | 406 kts | 232° |
| 2026-05-08 16:17 | 43.75342 | 7.00271 | 35037 ft | 406 kts | 232° |
| 2026-05-08 16:17 | 43.71945 | 6.94096 | 35038 ft | 401 kts | 244° |
| 2026-05-08 16:18 | 43.69758 | 6.87014 | 35040 ft | 400 kts | 249° |
| 2026-05-08 16:18 | 43.67666 | 6.79896 | 35030 ft | 401 kts | 249° |
| 2026-05-08 16:19 | 43.65550 | 6.72742 | 35033 ft | 402 kts | 249° |
| 2026-05-08 16:19 | 43.63423 | 6.65570 | 35021 ft | 403 kts | 249° |
| 2026-05-08 16:20 | 43.61291 | 6.58404 | 35029 ft | 404 kts | 249° |
| 2026-05-08 16:20 | 43.59168 | 6.51273 | 35031 ft | 404 kts | 249° |
| 2026-05-08 16:21 | 43.57028 | 6.44096 | 35038 ft | 404 kts | 248° |
| 2026-05-08 16:21 | 43.54882 | 6.36915 | 35037 ft | 405 kts | 248° |
| 2026-05-08 16:22 | 43.52737 | 6.29767 | 35036 ft | 406 kts | 248° |
| 2026-05-08 16:22 | 43.50569 | 6.22566 | 35039 ft | 406 kts | 248° |
| 2026-05-08 16:23 | 43.48391 | 6.15389 | 35041 ft | 406 kts | 246° |
| 2026-05-08 16:23 | 43.45370 | 6.08809 | 35034 ft | 408 kts | 236° |
| 2026-05-08 16:24 | 43.42120 | 6.02409 | 35032 ft | 409 kts | 236° |
| 2026-05-08 16:24 | 43.38839 | 5.96002 | 35035 ft | 410 kts | 236° |
| 2026-05-08 16:25 | 43.35558 | 5.89589 | 35036 ft | 410 kts | 236° |
| 2026-05-08 16:25 | 43.32276 | 5.83179 | 35045 ft | 411 kts | 236° |
| 2026-05-08 16:26 | 43.28981 | 5.76765 | 35049 ft | 411 kts | 236° |
| 2026-05-08 16:26 | 43.25704 | 5.70387 | 35040 ft | 412 kts | 235° |
| 2026-05-08 16:27 | 43.22385 | 5.63944 | 35034 ft | 414 kts | 235° |
| 2026-05-08 16:27 | 43.19049 | 5.57495 | 35032 ft | 415 kts | 235° |
| 2026-05-08 16:28 | 43.15696 | 5.51036 | 35033 ft | 416 kts | 235° |
| 2026-05-08 16:28 | 43.12347 | 5.44573 | 35039 ft | 417 kts | 235° |
| 2026-05-08 16:29 | 43.08992 | 5.38107 | 35038 ft | 417 kts | 235° |
| 2026-05-08 16:29 | 43.05624 | 5.31634 | 35054 ft | 418 kts | 234° |
| 2026-05-08 16:30 | 43.02250 | 5.25187 | 35050 ft | 419 kts | 234° |
| 2026-05-08 16:30 | 42.98853 | 5.18702 | 35046 ft | 420 kts | 234° |
| 2026-05-08 16:31 | 42.95456 | 5.12219 | 35049 ft | 420 kts | 234° |
| 2026-05-08 16:31 | 42.92045 | 5.05738 | 35050 ft | 420 kts | 234° |
| 2026-05-08 16:32 | 42.88635 | 4.99264 | 35040 ft | 420 kts | 234° |
| 2026-05-08 16:32 | 42.85225 | 4.92810 | 35073 ft | 419 kts | 234° |
| 2026-05-08 16:33 | 42.81812 | 4.86356 | 35057 ft | 419 kts | 234° |
| 2026-05-08 16:33 | 42.78419 | 4.79951 | 35053 ft | 419 kts | 234° |
| 2026-05-08 16:34 | 42.74999 | 4.73508 | 35048 ft | 420 kts | 234° |
| 2026-05-08 16:34 | 42.71576 | 4.67082 | 35047 ft | 420 kts | 234° |
| 2026-05-08 16:35 | 42.68139 | 4.60640 | 35044 ft | 420 kts | 234° |
| 2026-05-08 16:35 | 42.64709 | 4.54224 | 35051 ft | 420 kts | 233° |
| 2026-05-08 16:36 | 42.61264 | 4.47805 | 35037 ft | 421 kts | 233° |
| 2026-05-08 16:36 | 42.59531 | 4.44583 | 34930 ft | 422 kts | 233° |
| 2026-05-08 16:36 | 42.57802 | 4.41369 | 34682 ft | 422 kts | 233° |
| 2026-05-08 16:37 | 42.56069 | 4.38146 | 34444 ft | 423 kts | 233° |
| 2026-05-08 16:37 | 42.54330 | 4.34922 | 34206 ft | 424 kts | 233° |
| 2026-05-08 16:37 | 42.52580 | 4.31685 | 33949 ft | 425 kts | 233° |
| 2026-05-08 16:37 | 42.50853 | 4.28490 | 33681 ft | 426 kts | 233° |
| 2026-05-08 16:38 | 42.49107 | 4.25257 | 33422 ft | 426 kts | 233° |
| 2026-05-08 16:38 | 42.47351 | 4.22008 | 33139 ft | 427 kts | 233° |
| 2026-05-08 16:38 | 42.45601 | 4.18769 | 32892 ft | 427 kts | 233° |
| 2026-05-08 16:38 | 42.43837 | 4.15510 | 32631 ft | 428 kts | 233° |
| 2026-05-08 16:39 | 42.42078 | 4.12262 | 32370 ft | 428 kts | 233° |
| 2026-05-08 16:39 | 42.40321 | 4.09019 | 32105 ft | 428 kts | 233° |
| 2026-05-08 16:39 | 42.38553 | 4.05760 | 31835 ft | 428 kts | 232° |
| 2026-05-08 16:39 | 42.36789 | 4.02524 | 31605 ft | 428 kts | 232° |
| 2026-05-08 16:40 | 42.35016 | 3.99281 | 31349 ft | 427 kts | 232° |
| 2026-05-08 16:40 | 42.33258 | 3.96072 | 31086 ft | 424 kts | 232° |
| 2026-05-08 16:40 | 42.31502 | 3.92868 | 30842 ft | 422 kts | 232° |
| 2026-05-08 16:40 | 42.29764 | 3.89696 | 30598 ft | 420 kts | 232° |
| 2026-05-08 16:41 | 42.28037 | 3.86545 | 30250 ft | 415 kts | 232° |
| 2026-05-08 16:41 | 42.26285 | 3.83473 | 29649 ft | 411 kts | 228° |
| 2026-05-08 16:41 | 42.24267 | 3.80783 | 29102 ft | 405 kts | 221° |
| 2026-05-08 16:42 | 42.20062 | 3.75870 | 27983 ft | 394 kts | 221° |
| 2026-05-08 16:42 | 42.18004 | 3.73472 | 27432 ft | 389 kts | 221° |
| 2026-05-08 16:42 | 42.15972 | 3.71103 | 26903 ft | 385 kts | 221° |
| 2026-05-08 16:42 | 42.13955 | 3.68759 | 26375 ft | 380 kts | 221° |
| 2026-05-08 16:43 | 42.11960 | 3.66449 | 25862 ft | 376 kts | 221° |
| 2026-05-08 16:43 | 42.09980 | 3.64153 | 25350 ft | 372 kts | 221° |
| 2026-05-08 16:43 | 42.08077 | 3.61815 | 24866 ft | 369 kts | 227° |
| 2026-05-08 16:43 | 42.06321 | 3.59335 | 24537 ft | 364 kts | 227° |
| 2026-05-08 16:44 | 42.04574 | 3.56885 | 24173 ft | 361 kts | 227° |
| 2026-05-08 16:44 | 42.02862 | 3.54479 | 23830 ft | 359 kts | 229° |
| 2026-05-08 16:44 | 42.01375 | 3.51803 | 23599 ft | 357 kts | 235° |
| 2026-05-08 16:44 | 41.99950 | 3.49068 | 23323 ft | 356 kts | 235° |
| 2026-05-08 16:45 | 41.98527 | 3.46340 | 23058 ft | 356 kts | 235° |
| 2026-05-08 16:45 | 41.97109 | 3.43623 | 22793 ft | 353 kts | 235° |
| 2026-05-08 16:45 | 41.95706 | 3.40935 | 22434 ft | 348 kts | 235° |
| 2026-05-08 16:45 | 41.94325 | 3.38292 | 22020 ft | 344 kts | 235° |
| 2026-05-08 16:46 | 41.92961 | 3.35676 | 21603 ft | 340 kts | 236° |
| 2026-05-08 16:46 | 41.91612 | 3.33097 | 21190 ft | 335 kts | 236° |
| 2026-05-08 16:46 | 41.90278 | 3.30549 | 20763 ft | 332 kts | 236° |
| 2026-05-08 16:46 | 41.88958 | 3.28031 | 20360 ft | 328 kts | 236° |
| 2026-05-08 16:47 | 41.87649 | 3.25532 | 19951 ft | 326 kts | 236° |
| 2026-05-08 16:47 | 41.86349 | 3.23056 | 19544 ft | 324 kts | 236° |
| 2026-05-08 16:47 | 41.85055 | 3.20591 | 19099 ft | 322 kts | 236° |
| 2026-05-08 16:47 | 41.83770 | 3.18144 | 18669 ft | 321 kts | 236° |
| 2026-05-08 16:48 | 41.82484 | 3.15698 | 18223 ft | 320 kts | 236° |
| 2026-05-08 16:48 | 41.81200 | 3.13256 | 17748 ft | 319 kts | 236° |
| 2026-05-08 16:48 | 41.79927 | 3.10834 | 17301 ft | 317 kts | 235° |
| 2026-05-08 16:48 | 41.78654 | 3.08422 | 16861 ft | 315 kts | 235° |
| 2026-05-08 16:49 | 41.77389 | 3.06030 | 16418 ft | 314 kts | 235° |
| 2026-05-08 16:49 | 41.76130 | 3.03648 | 15980 ft | 313 kts | 234° |
| 2026-05-08 16:49 | 41.74876 | 3.01272 | 15532 ft | 312 kts | 234° |
| 2026-05-08 16:49 | 41.73622 | 2.98899 | 15091 ft | 311 kts | 234° |
| 2026-05-08 16:50 | 41.72372 | 2.96533 | 14649 ft | 311 kts | 233° |
| 2026-05-08 16:50 | 41.71122 | 2.94168 | 14206 ft | 311 kts | 233° |
| 2026-05-08 16:50 | 41.69888 | 2.91838 | 13761 ft | 311 kts | 233° |
| 2026-05-08 16:50 | 41.68637 | 2.89474 | 13284 ft | 311 kts | 233° |
| 2026-05-08 16:51 | 41.67392 | 2.87124 | 12828 ft | 309 kts | 233° |
| 2026-05-08 16:51 | 41.66145 | 2.84779 | 12384 ft | 308 kts | 233° |
| 2026-05-08 16:51 | 41.64902 | 2.82445 | 11938 ft | 308 kts | 233° |
| 2026-05-08 16:51 | 41.63658 | 2.80111 | 11497 ft | 308 kts | 233° |
| 2026-05-08 16:52 | 41.62418 | 2.77783 | 11042 ft | 307 kts | 233° |
| 2026-05-08 16:52 | 41.61181 | 2.75461 | 10591 ft | 307 kts | 233° |
| 2026-05-08 16:52 | 41.59946 | 2.73145 | 10340 ft | 300 kts | 233° |
| 2026-05-08 16:52 | 41.58760 | 2.70919 | 10230 ft | 289 kts | 233° |
| 2026-05-08 16:53 | 41.56478 | 2.66639 | 9973 ft | 279 kts | 233° |
| 2026-05-08 16:53 | 41.55341 | 2.64513 | 9626 ft | 285 kts | 233° |
| 2026-05-08 16:53 | 41.54185 | 2.62359 | 9266 ft | 283 kts | 233° |
| 2026-05-08 16:54 | 41.53042 | 2.60236 | 8890 ft | 280 kts | 233° |
| 2026-05-08 16:54 | 41.51930 | 2.58168 | 8591 ft | 264 kts | 233° |
| 2026-05-08 16:54 | 41.50882 | 2.56215 | 8190 ft | 256 kts | 233° |
| 2026-05-08 16:54 | 41.49852 | 2.54298 | 7720 ft | 252 kts | 233° |
| 2026-05-08 16:55 | 41.49176 | 2.53039 | 7400 ft | 250 kts | 233° |
| 2026-05-08 16:55 | 41.47831 | 2.50535 | 6752 ft | 247 kts | 233° |
| 2026-05-08 16:55 | 41.46836 | 2.48683 | 6259 ft | 245 kts | 233° |
| 2026-05-08 16:55 | 41.45852 | 2.46849 | 5748 ft | 242 kts | 233° |
| 2026-05-08 16:56 | 41.45204 | 2.45643 | 5412 ft | 241 kts | 233° |
| 2026-05-08 16:56 | 41.43916 | 2.43249 | 4749 ft | 238 kts | 233° |
| 2026-05-08 16:56 | 41.42956 | 2.41464 | 4236 ft | 236 kts | 233° |
| 2026-05-08 16:56 | 41.42001 | 2.39695 | 3733 ft | 234 kts | 233° |
| 2026-05-08 16:57 | 41.41363 | 2.38516 | 3393 ft | 232 kts | 232° |
| 2026-05-08 16:57 | 41.40421 | 2.36773 | 2885 ft | 230 kts | 233° |
| 2026-05-08 16:57 | 41.39492 | 2.35053 | 2415 ft | 227 kts | 232° |
| 2026-05-08 16:57 | 41.38311 | 2.32783 | 2300 ft | 226 kts | 238° |
| 2026-05-08 16:58 | 41.37798 | 2.31534 | 2303 ft | 228 kts | 242° |
| 2026-05-08 16:58 | 41.37120 | 2.29617 | 2313 ft | 230 kts | 244° |
| 2026-05-08 16:58 | 41.36471 | 2.27697 | 2312 ft | 231 kts | 244° |
| 2026-05-08 16:58 | 41.35826 | 2.25791 | 2299 ft | 219 kts | 244° |
| 2026-05-08 16:59 | 41.35216 | 2.23994 | 2216 ft | 209 kts | 243° |
| 2026-05-08 16:59 | 41.34628 | 2.22264 | 1957 ft | 202 kts | 242° |
| 2026-05-08 16:59 | 41.34063 | 2.20608 | 1700 ft | 193 kts | 243° |
| 2026-05-08 16:59 | 41.33515 | 2.19000 | 1439 ft | 191 kts | 242° |
| 2026-05-08 17:00 | 41.32983 | 2.17436 | 1193 ft | 176 kts | 244° |
| 2026-05-08 17:00 | 41.32515 | 2.16063 | 971 ft | 155 kts | 244° |
| 2026-05-08 17:00 | 41.32080 | 2.14791 | 774 ft | 147 kts | 243° |
| 2026-05-08 17:00 | 41.31664 | 2.13570 | 582 ft | 143 kts | 243° |
| 2026-05-08 17:01 | 41.31254 | 2.12370 | 390 ft | 143 kts | 243° |
| 2026-05-08 17:01 | 41.30849 | 2.11167 | 211 ft | 141 kts | 243° |
| 2026-05-08 17:01 | 41.30441 | 2.09985 | 43 ft | 140 kts | 242° |
| 2026-05-08 17:01 | 41.30063 | 2.08937 | 19 ft | 107 kts | 245° |
| 2026-05-08 17:02 | 41.29859 | 2.08356 | 25 ft | 27 kts | 235° |
| 2026-05-08 17:02 | 41.29774 | 2.08247 | 19 ft | 11 kts | 224° |
| 2026-05-08 17:02 | 41.29760 | 2.08229 | 19 ft | 0 kts | 224° |
| 2026-05-08 17:03 | 41.29749 | 2.08222 | 18 ft | 3 kts | 207° |
| 2026-05-08 17:03 | 41.29684 | 2.08192 | 18 ft | 13 kts | 186° |
| 2026-05-08 17:03 | 41.29634 | 2.08168 | 19 ft | 8 kts | 227° |
| 2026-05-08 17:03 | 41.29603 | 2.08083 | 18 ft | 13 kts | 240° |
| 2026-05-08 17:04 | 41.29567 | 2.07988 | 16 ft | 8 kts | 245° |
| 2026-05-08 17:04 | 41.29562 | 2.07973 | 19 ft | 4 kts | 245° |
| 2026-05-08 17:04 | 41.29554 | 2.07949 | 17 ft | 2 kts | 245° |
| 2026-05-08 17:04 | 41.29529 | 2.07939 | 16 ft | 9 kts | 191° |
| 2026-05-08 17:05 | 41.29448 | 2.07982 | 18 ft | 14 kts | 154° |
| 2026-05-08 17:05 | 41.29353 | 2.08041 | 18 ft | 3 kts | 158° |
| 2026-05-08 17:05 | 41.29346 | 2.08056 | 18 ft | 1 kts | 67° |
| 2026-05-08 17:05 | 41.29365 | 2.08095 | 18 ft | 5 kts | 70° |
| 2026-05-08 17:06 | 41.29372 | 2.08117 | 19 ft | 0 kts | 66° |